sensor_id;sensor_type;location;lat;lon;timestamp;P1;durP1;ratioP1;P2;durP2;ratioP2
55172;SDS011;41061;52.822;6.860;2023-03-01T00:01:53;21.25;;;14.07;;
55172;SDS011;41061;52.822;6.860;2023-03-01T00:04:19;20.58;;;13.85;;
55172;SDS011;41061;52.822;6.860;2023-03-01T00:06:46;20.90;;;14.60;;
55172;SDS011;41061;52.822;6.860;2023-03-01T00:09:15;24.50;;;14.45;;
55172;SDS011;41061;52.822;6.860;2023-03-01T00:11:41;28.27;;;15.27;;
55172;SDS011;41061;52.822;6.860;2023-03-01T00:14:07;28.35;;;14.90;;
55172;SDS011;41061;52.822;6.860;2023-03-01T00:16:34;29.83;;;16.08;;
55172;SDS011;41061;52.822;6.860;2023-03-01T00:19:01;24.88;;;15.43;;
55172;SDS011;41061;52.822;6.860;2023-03-01T00:21:27;24.88;;;15.88;;
55172;SDS011;41061;52.822;6.860;2023-03-01T00:23:54;24.42;;;15.68;;
55172;SDS011;41061;52.822;6.860;2023-03-01T00:26:21;25.67;;;15.68;;
55172;SDS011;41061;52.822;6.860;2023-03-01T00:28:47;23.00;;;14.90;;
55172;SDS011;41061;52.822;6.860;2023-03-01T00:31:15;26.88;;;15.18;;
55172;SDS011;41061;52.822;6.860;2023-03-01T00:33:41;29.00;;;16.95;;
55172;SDS011;41061;52.822;6.860;2023-03-01T00:36:08;28.08;;;17.52;;
55172;SDS011;41061;52.822;6.860;2023-03-01T00:38:41;32.47;;;18.17;;
55172;SDS011;41061;52.822;6.860;2023-03-01T00:41:09;28.05;;;16.80;;
55172;SDS011;41061;52.822;6.860;2023-03-01T00:43:35;34.85;;;18.38;;
55172;SDS011;41061;52.822;6.860;2023-03-01T00:46:05;30.73;;;18.63;;
55172;SDS011;41061;52.822;6.860;2023-03-01T00:48:32;34.38;;;18.40;;
55172;SDS011;41061;52.822;6.860;2023-03-01T00:51:04;33.90;;;18.88;;
55172;SDS011;41061;52.822;6.860;2023-03-01T00:53:30;32.08;;;18.83;;
55172;SDS011;41061;52.822;6.860;2023-03-01T00:55:57;31.60;;;18.10;;
55172;SDS011;41061;52.822;6.860;2023-03-01T00:58:23;30.70;;;17.75;;
55172;SDS011;41061;52.822;6.860;2023-03-01T01:00:49;37.35;;;19.90;;
55172;SDS011;41061;52.822;6.860;2023-03-01T01:03:18;34.90;;;18.60;;
55172;SDS011;41061;52.822;6.860;2023-03-01T01:05:44;31.38;;;19.30;;
55172;SDS011;41061;52.822;6.860;2023-03-01T01:08:10;34.22;;;19.67;;
55172;SDS011;41061;52.822;6.860;2023-03-01T01:10:36;36.50;;;20.98;;
55172;SDS011;41061;52.822;6.860;2023-03-01T01:13:03;30.70;;;19.48;;
55172;SDS011;41061;52.822;6.860;2023-03-01T01:15:31;38.42;;;18.85;;
55172;SDS011;41061;52.822;6.860;2023-03-01T01:17:59;34.42;;;19.10;;
55172;SDS011;41061;52.822;6.860;2023-03-01T01:20:25;33.17;;;19.83;;
55172;SDS011;41061;52.822;6.860;2023-03-01T01:22:51;32.08;;;19.05;;
55172;SDS011;41061;52.822;6.860;2023-03-01T01:25:18;31.80;;;19.45;;
55172;SDS011;41061;52.822;6.860;2023-03-01T01:27:44;33.95;;;20.40;;
55172;SDS011;41061;52.822;6.860;2023-03-01T01:30:10;30.08;;;19.67;;
55172;SDS011;41061;52.822;6.860;2023-03-01T01:32:36;30.60;;;18.23;;
55172;SDS011;41061;52.822;6.860;2023-03-01T01:35:03;30.10;;;18.27;;
55172;SDS011;41061;52.822;6.860;2023-03-01T01:37:29;29.88;;;18.48;;
55172;SDS011;41061;52.822;6.860;2023-03-01T01:39:58;31.02;;;17.48;;
55172;SDS011;41061;52.822;6.860;2023-03-01T01:42:24;26.15;;;16.20;;
55172;SDS011;41061;52.822;6.860;2023-03-01T01:47:35;30.63;;;17.45;;
55172;SDS011;41061;52.822;6.860;2023-03-01T01:50:01;27.48;;;17.33;;
55172;SDS011;41061;52.822;6.860;2023-03-01T01:52:31;26.55;;;15.85;;
55172;SDS011;41061;52.822;6.860;2023-03-01T01:55:02;29.13;;;17.63;;
55172;SDS011;41061;52.822;6.860;2023-03-01T01:57:31;31.15;;;18.55;;
55172;SDS011;41061;52.822;6.860;2023-03-01T02:00:00;32.03;;;19.20;;
55172;SDS011;41061;52.822;6.860;2023-03-01T02:02:26;29.85;;;17.23;;
55172;SDS011;41061;52.822;6.860;2023-03-01T02:04:54;29.60;;;17.05;;
55172;SDS011;41061;52.822;6.860;2023-03-01T02:07:23;25.85;;;16.63;;
55172;SDS011;41061;52.822;6.860;2023-03-01T02:09:51;24.95;;;16.55;;
55172;SDS011;41061;52.822;6.860;2023-03-01T02:12:19;24.23;;;17.13;;
55172;SDS011;41061;52.822;6.860;2023-03-01T02:14:46;25.25;;;16.15;;
55172;SDS011;41061;52.822;6.860;2023-03-01T02:17:12;29.55;;;16.92;;
55172;SDS011;41061;52.822;6.860;2023-03-01T02:20:22;25.20;;;17.10;;
55172;SDS011;41061;52.822;6.860;2023-03-01T02:22:32;31.40;;;17.92;;
55172;SDS011;41061;52.822;6.860;2023-03-01T02:25:04;25.25;;;16.55;;
55172;SDS011;41061;52.822;6.860;2023-03-01T02:27:40;27.52;;;17.73;;
55172;SDS011;41061;52.822;6.860;2023-03-01T02:30:09;26.50;;;17.23;;
55172;SDS011;41061;52.822;6.860;2023-03-01T02:32:38;28.73;;;17.65;;
55172;SDS011;41061;52.822;6.860;2023-03-01T02:35:07;27.35;;;18.45;;
55172;SDS011;41061;52.822;6.860;2023-03-01T02:37:33;25.63;;;16.65;;
55172;SDS011;41061;52.822;6.860;2023-03-01T02:40:02;27.90;;;17.10;;
55172;SDS011;41061;52.822;6.860;2023-03-01T02:42:43;27.90;;;17.73;;
55172;SDS011;41061;52.822;6.860;2023-03-01T02:45:11;27.42;;;17.33;;
55172;SDS011;41061;52.822;6.860;2023-03-01T02:47:37;29.10;;;17.48;;
55172;SDS011;41061;52.822;6.860;2023-03-01T02:50:09;23.88;;;15.82;;
55172;SDS011;41061;52.822;6.860;2023-03-01T02:52:40;22.95;;;15.30;;
55172;SDS011;41061;52.822;6.860;2023-03-01T02:55:10;22.90;;;14.73;;
55172;SDS011;41061;52.822;6.860;2023-03-01T02:57:39;23.02;;;14.38;;
55172;SDS011;41061;52.822;6.860;2023-03-01T03:00:07;20.92;;;14.35;;
55172;SDS011;41061;52.822;6.860;2023-03-01T03:02:34;24.88;;;15.80;;
55172;SDS011;41061;52.822;6.860;2023-03-01T03:07:31;27.42;;;15.95;;
55172;SDS011;41061;52.822;6.860;2023-03-01T03:09:58;24.17;;;15.63;;
55172;SDS011;41061;52.822;6.860;2023-03-01T03:12:24;27.08;;;16.25;;
55172;SDS011;41061;52.822;6.860;2023-03-01T03:14:50;23.95;;;15.45;;
55172;SDS011;41061;52.822;6.860;2023-03-01T03:17:16;23.23;;;15.68;;
55172;SDS011;41061;52.822;6.860;2023-03-01T03:19:42;27.30;;;17.25;;
55172;SDS011;41061;52.822;6.860;2023-03-01T03:22:11;30.33;;;17.20;;
55172;SDS011;41061;52.822;6.860;2023-03-01T03:24:37;30.45;;;17.77;;
55172;SDS011;41061;52.822;6.860;2023-03-01T03:27:04;26.05;;;17.33;;
55172;SDS011;41061;52.822;6.860;2023-03-01T03:29:30;29.38;;;17.85;;
55172;SDS011;41061;52.822;6.860;2023-03-01T03:31:56;32.20;;;17.67;;
55172;SDS011;41061;52.822;6.860;2023-03-01T03:34:22;27.58;;;17.52;;
55172;SDS011;41061;52.822;6.860;2023-03-01T03:36:52;30.63;;;18.77;;
55172;SDS011;41061;52.822;6.860;2023-03-01T03:39:22;24.77;;;16.58;;
55172;SDS011;41061;52.822;6.860;2023-03-01T03:41:48;26.27;;;17.17;;
55172;SDS011;41061;52.822;6.860;2023-03-01T03:44:15;28.17;;;16.98;;
55172;SDS011;41061;52.822;6.860;2023-03-01T03:46:41;27.85;;;17.52;;
55172;SDS011;41061;52.822;6.860;2023-03-01T03:49:07;32.90;;;18.10;;
55172;SDS011;41061;52.822;6.860;2023-03-01T03:51:33;28.83;;;17.48;;
55172;SDS011;41061;52.822;6.860;2023-03-01T03:53:59;30.23;;;17.88;;
55172;SDS011;41061;52.822;6.860;2023-03-01T03:56:25;29.83;;;17.70;;
55172;SDS011;41061;52.822;6.860;2023-03-01T03:58:51;33.22;;;18.75;;
55172;SDS011;41061;52.822;6.860;2023-03-01T04:01:17;28.42;;;18.08;;
55172;SDS011;41061;52.822;6.860;2023-03-01T04:03:44;30.30;;;17.15;;
55172;SDS011;41061;52.822;6.860;2023-03-01T04:06:13;31.83;;;17.80;;
55172;SDS011;41061;52.822;6.860;2023-03-01T04:08:39;30.00;;;18.27;;
55172;SDS011;41061;52.822;6.860;2023-03-01T04:11:06;29.45;;;18.45;;
55172;SDS011;41061;52.822;6.860;2023-03-01T04:13:51;28.85;;;18.15;;
55172;SDS011;41061;52.822;6.860;2023-03-01T04:16:18;28.85;;;17.73;;
55172;SDS011;41061;52.822;6.860;2023-03-01T04:18:44;30.25;;;18.25;;
55172;SDS011;41061;52.822;6.860;2023-03-01T04:21:10;29.40;;;17.35;;
55172;SDS011;41061;52.822;6.860;2023-03-01T04:23:37;28.02;;;18.02;;
55172;SDS011;41061;52.822;6.860;2023-03-01T04:26:03;30.30;;;17.60;;
55172;SDS011;41061;52.822;6.860;2023-03-01T04:28:37;27.15;;;17.15;;
55172;SDS011;41061;52.822;6.860;2023-03-01T04:31:07;33.85;;;17.67;;
55172;SDS011;41061;52.822;6.860;2023-03-01T04:33:46;31.60;;;18.00;;
55172;SDS011;41061;52.822;6.860;2023-03-01T04:36:13;27.25;;;17.27;;
55172;SDS011;41061;52.822;6.860;2023-03-01T04:38:39;31.17;;;17.77;;
55172;SDS011;41061;52.822;6.860;2023-03-01T04:41:06;33.55;;;18.23;;
55172;SDS011;41061;52.822;6.860;2023-03-01T04:43:33;29.30;;;18.02;;
55172;SDS011;41061;52.822;6.860;2023-03-01T04:46:00;26.00;;;17.15;;
55172;SDS011;41061;52.822;6.860;2023-03-01T04:48:27;25.30;;;15.48;;
55172;SDS011;41061;52.822;6.860;2023-03-01T04:50:54;24.30;;;15.65;;
55172;SDS011;41061;52.822;6.860;2023-03-01T04:53:20;33.10;;;17.88;;
55172;SDS011;41061;52.822;6.860;2023-03-01T04:55:46;26.10;;;15.60;;
55172;SDS011;41061;52.822;6.860;2023-03-01T04:58:12;29.90;;;16.83;;
55172;SDS011;41061;52.822;6.860;2023-03-01T05:00:38;26.77;;;17.10;;
55172;SDS011;41061;52.822;6.860;2023-03-01T05:03:04;28.75;;;18.25;;
55172;SDS011;41061;52.822;6.860;2023-03-01T05:05:31;30.13;;;17.70;;
55172;SDS011;41061;52.822;6.860;2023-03-01T05:07:58;27.65;;;18.20;;
55172;SDS011;41061;52.822;6.860;2023-03-01T05:10:26;32.00;;;17.80;;
55172;SDS011;41061;52.822;6.860;2023-03-01T05:12:54;30.55;;;18.50;;
55172;SDS011;41061;52.822;6.860;2023-03-01T05:15:22;33.72;;;16.90;;
55172;SDS011;41061;52.822;6.860;2023-03-01T05:17:50;31.40;;;18.20;;
55172;SDS011;41061;52.822;6.860;2023-03-01T05:20:17;32.53;;;19.50;;
55172;SDS011;41061;52.822;6.860;2023-03-01T05:22:43;33.83;;;18.35;;
55172;SDS011;41061;52.822;6.860;2023-03-01T05:25:09;31.85;;;18.67;;
55172;SDS011;41061;52.822;6.860;2023-03-01T05:27:35;31.17;;;18.55;;
55172;SDS011;41061;52.822;6.860;2023-03-01T05:30:02;35.60;;;20.40;;
55172;SDS011;41061;52.822;6.860;2023-03-01T05:32:42;29.92;;;17.70;;
55172;SDS011;41061;52.822;6.860;2023-03-01T05:35:09;33.92;;;20.60;;
55172;SDS011;41061;52.822;6.860;2023-03-01T05:37:38;32.38;;;19.33;;
55172;SDS011;41061;52.822;6.860;2023-03-01T05:40:05;37.28;;;20.20;;
55172;SDS011;41061;52.822;6.860;2023-03-01T05:42:32;33.97;;;20.83;;
55172;SDS011;41061;52.822;6.860;2023-03-01T05:44:58;32.10;;;20.08;;
55172;SDS011;41061;52.822;6.860;2023-03-01T05:47:24;35.20;;;19.90;;
55172;SDS011;41061;52.822;6.860;2023-03-01T05:49:50;33.10;;;19.67;;
55172;SDS011;41061;52.822;6.860;2023-03-01T05:52:17;31.70;;;19.60;;
55172;SDS011;41061;52.822;6.860;2023-03-01T05:54:43;34.78;;;20.27;;
55172;SDS011;41061;52.822;6.860;2023-03-01T05:57:09;33.50;;;18.88;;
55172;SDS011;41061;52.822;6.860;2023-03-01T05:59:35;37.63;;;20.00;;
55172;SDS011;41061;52.822;6.860;2023-03-01T06:02:01;29.17;;;18.40;;
55172;SDS011;41061;52.822;6.860;2023-03-01T06:04:27;33.60;;;18.33;;
55172;SDS011;41061;52.822;6.860;2023-03-01T06:06:53;29.13;;;18.10;;
55172;SDS011;41061;52.822;6.860;2023-03-01T06:09:19;24.33;;;15.75;;
55172;SDS011;41061;52.822;6.860;2023-03-01T06:11:45;27.67;;;16.38;;
55172;SDS011;41061;52.822;6.860;2023-03-01T06:14:11;24.90;;;16.55;;
55172;SDS011;41061;52.822;6.860;2023-03-01T06:16:39;28.45;;;17.50;;
55172;SDS011;41061;52.822;6.860;2023-03-01T06:19:05;30.20;;;18.25;;
55172;SDS011;41061;52.822;6.860;2023-03-01T06:21:31;32.67;;;18.10;;
55172;SDS011;41061;52.822;6.860;2023-03-01T06:23:57;29.05;;;17.92;;
55172;SDS011;41061;52.822;6.860;2023-03-01T06:26:23;27.30;;;16.80;;
55172;SDS011;41061;52.822;6.860;2023-03-01T06:28:49;28.38;;;17.20;;
55172;SDS011;41061;52.822;6.860;2023-03-01T06:31:16;25.98;;;16.33;;
55172;SDS011;41061;52.822;6.860;2023-03-01T06:33:42;28.65;;;17.38;;
55172;SDS011;41061;52.822;6.860;2023-03-01T06:36:09;27.23;;;16.88;;
55172;SDS011;41061;52.822;6.860;2023-03-01T06:38:35;29.58;;;16.73;;
55172;SDS011;41061;52.822;6.860;2023-03-01T06:41:02;27.25;;;17.30;;
55172;SDS011;41061;52.822;6.860;2023-03-01T06:43:28;28.33;;;17.15;;
55172;SDS011;41061;52.822;6.860;2023-03-01T06:45:54;31.17;;;18.02;;
55172;SDS011;41061;52.822;6.860;2023-03-01T06:48:20;33.67;;;17.95;;
55172;SDS011;41061;52.822;6.860;2023-03-01T06:50:46;28.45;;;17.20;;
55172;SDS011;41061;52.822;6.860;2023-03-01T06:53:12;30.35;;;17.48;;
55172;SDS011;41061;52.822;6.860;2023-03-01T06:55:38;30.83;;;18.95;;
55172;SDS011;41061;52.822;6.860;2023-03-01T06:58:04;32.65;;;18.55;;
55172;SDS011;41061;52.822;6.860;2023-03-01T07:00:31;27.58;;;18.02;;
55172;SDS011;41061;52.822;6.860;2023-03-01T07:03:00;28.88;;;19.27;;
55172;SDS011;41061;52.822;6.860;2023-03-01T07:05:27;28.73;;;18.10;;
55172;SDS011;41061;52.822;6.860;2023-03-01T07:07:53;32.45;;;18.83;;
55172;SDS011;41061;52.822;6.860;2023-03-01T07:10:21;32.45;;;20.33;;
55172;SDS011;41061;52.822;6.860;2023-03-01T07:12:47;32.50;;;20.73;;
55172;SDS011;41061;52.822;6.860;2023-03-01T07:15:13;33.75;;;19.20;;
55172;SDS011;41061;52.822;6.860;2023-03-01T07:17:40;34.95;;;21.40;;
55172;SDS011;41061;52.822;6.860;2023-03-01T07:20:06;36.20;;;21.67;;
55172;SDS011;41061;52.822;6.860;2023-03-01T07:22:32;40.30;;;21.42;;
55172;SDS011;41061;52.822;6.860;2023-03-01T07:24:58;40.58;;;22.27;;
55172;SDS011;41061;52.822;6.860;2023-03-01T07:27:24;38.40;;;21.17;;
55172;SDS011;41061;52.822;6.860;2023-03-01T07:29:50;37.28;;;22.20;;
55172;SDS011;41061;52.822;6.860;2023-03-01T07:32:16;40.83;;;20.77;;
55172;SDS011;41061;52.822;6.860;2023-03-01T07:34:42;33.53;;;21.98;;
55172;SDS011;41061;52.822;6.860;2023-03-01T07:37:08;35.22;;;20.52;;
55172;SDS011;41061;52.822;6.860;2023-03-01T07:39:34;43.15;;;22.67;;
55172;SDS011;41061;52.822;6.860;2023-03-01T07:42:00;38.15;;;21.73;;
55172;SDS011;41061;52.822;6.860;2023-03-01T07:44:26;42.38;;;21.73;;
55172;SDS011;41061;52.822;6.860;2023-03-01T07:46:53;34.90;;;21.02;;
55172;SDS011;41061;52.822;6.860;2023-03-01T07:49:21;42.47;;;22.20;;
55172;SDS011;41061;52.822;6.860;2023-03-01T07:51:47;42.50;;;22.40;;
55172;SDS011;41061;52.822;6.860;2023-03-01T07:54:13;33.88;;;21.92;;
55172;SDS011;41061;52.822;6.860;2023-03-01T07:56:39;39.90;;;24.88;;
55172;SDS011;41061;52.822;6.860;2023-03-01T07:59:05;36.20;;;22.48;;
55172;SDS011;41061;52.822;6.860;2023-03-01T08:01:32;37.80;;;22.90;;
55172;SDS011;41061;52.822;6.860;2023-03-01T08:03:58;40.10;;;22.75;;
55172;SDS011;41061;52.822;6.860;2023-03-01T08:06:24;38.08;;;21.73;;
55172;SDS011;41061;52.822;6.860;2023-03-01T08:08:50;35.22;;;21.70;;
55172;SDS011;41061;52.822;6.860;2023-03-01T08:11:16;35.55;;;21.95;;
55172;SDS011;41061;52.822;6.860;2023-03-01T08:13:42;33.63;;;22.13;;
55172;SDS011;41061;52.822;6.860;2023-03-01T08:16:13;32.22;;;20.75;;
55172;SDS011;41061;52.822;6.860;2023-03-01T08:18:39;35.53;;;22.45;;
55172;SDS011;41061;52.822;6.860;2023-03-01T08:21:06;32.38;;;20.77;;
55172;SDS011;41061;52.822;6.860;2023-03-01T08:23:33;33.63;;;21.20;;
55172;SDS011;41061;52.822;6.860;2023-03-01T08:26:19;34.22;;;21.13;;
55172;SDS011;41061;52.822;6.860;2023-03-01T08:28:46;34.17;;;21.33;;
55172;SDS011;41061;52.822;6.860;2023-03-01T08:31:17;36.67;;;21.23;;
55172;SDS011;41061;52.822;6.860;2023-03-01T08:33:45;36.38;;;21.02;;
55172;SDS011;41061;52.822;6.860;2023-03-01T08:36:15;31.73;;;19.55;;
55172;SDS011;41061;52.822;6.860;2023-03-01T08:38:42;30.60;;;20.50;;
55172;SDS011;41061;52.822;6.860;2023-03-01T08:41:07;32.67;;;21.08;;
55172;SDS011;41061;52.822;6.860;2023-03-01T08:43:33;31.60;;;19.83;;
55172;SDS011;41061;52.822;6.860;2023-03-01T08:45:59;35.78;;;20.95;;
55172;SDS011;41061;52.822;6.860;2023-03-01T08:48:25;26.73;;;17.85;;
55172;SDS011;41061;52.822;6.860;2023-03-01T08:50:53;26.30;;;18.17;;
55172;SDS011;41061;52.822;6.860;2023-03-01T08:53:19;24.35;;;16.38;;
55172;SDS011;41061;52.822;6.860;2023-03-01T08:55:44;21.23;;;14.80;;
55172;SDS011;41061;52.822;6.860;2023-03-01T08:58:10;19.48;;;12.13;;
55172;SDS011;41061;52.822;6.860;2023-03-01T09:00:36;17.73;;;10.63;;
55172;SDS011;41061;52.822;6.860;2023-03-01T09:03:02;17.70;;;11.02;;
55172;SDS011;41061;52.822;6.860;2023-03-01T09:05:27;12.60;;;8.48;;
55172;SDS011;41061;52.822;6.860;2023-03-01T09:07:57;14.00;;;9.27;;
55172;SDS011;41061;52.822;6.860;2023-03-01T09:10:22;12.75;;;7.85;;
55172;SDS011;41061;52.822;6.860;2023-03-01T09:12:48;12.82;;;7.05;;
55172;SDS011;41061;52.822;6.860;2023-03-01T09:15:14;12.38;;;7.60;;
55172;SDS011;41061;52.822;6.860;2023-03-01T09:17:40;10.45;;;6.80;;
55172;SDS011;41061;52.822;6.860;2023-03-01T09:20:05;13.10;;;6.68;;
55172;SDS011;41061;52.822;6.860;2023-03-01T09:22:33;14.25;;;7.32;;
55172;SDS011;41061;52.822;6.860;2023-03-01T09:24:59;12.48;;;8.57;;
55172;SDS011;41061;52.822;6.860;2023-03-01T09:27:25;13.35;;;9.63;;
55172;SDS011;41061;52.822;6.860;2023-03-01T09:29:51;10.20;;;7.05;;
55172;SDS011;41061;52.822;6.860;2023-03-01T09:32:16;9.77;;;6.47;;
55172;SDS011;41061;52.822;6.860;2023-03-01T09:34:42;9.30;;;6.95;;
55172;SDS011;41061;52.822;6.860;2023-03-01T09:37:28;10.60;;;5.88;;
55172;SDS011;41061;52.822;6.860;2023-03-01T09:39:54;11.07;;;6.45;;
55172;SDS011;41061;52.822;6.860;2023-03-01T09:42:20;9.90;;;6.45;;
55172;SDS011;41061;52.822;6.860;2023-03-01T09:44:59;12.05;;;5.75;;
55172;SDS011;41061;52.822;6.860;2023-03-01T09:47:32;8.13;;;4.82;;
55172;SDS011;41061;52.822;6.860;2023-03-01T09:50:18;9.35;;;5.43;;
55172;SDS011;41061;52.822;6.860;2023-03-01T10:00:47;6.97;;;4.70;;
55172;SDS011;41061;52.822;6.860;2023-03-01T10:03:20;7.32;;;3.75;;
55172;SDS011;41061;52.822;6.860;2023-03-01T10:09:10;8.02;;;4.85;;
55172;SDS011;41061;52.822;6.860;2023-03-01T10:11:24;9.98;;;5.15;;
55172;SDS011;41061;52.822;6.860;2023-03-01T10:13:59;9.98;;;6.20;;
55172;SDS011;41061;52.822;6.860;2023-03-01T10:19:04;7.45;;;4.38;;
55172;SDS011;41061;52.822;6.860;2023-03-01T10:21:35;6.68;;;4.55;;
55172;SDS011;41061;52.822;6.860;2023-03-01T10:24:16;7.20;;;4.77;;
55172;SDS011;41061;52.822;6.860;2023-03-01T10:26:47;7.60;;;4.60;;
55172;SDS011;41061;52.822;6.860;2023-03-01T10:29:14;8.80;;;5.20;;
55172;SDS011;41061;52.822;6.860;2023-03-01T10:36:38;8.00;;;5.70;;
55172;SDS011;41061;52.822;6.860;2023-03-01T10:39:12;8.07;;;4.32;;
55172;SDS011;41061;52.822;6.860;2023-03-01T10:41:44;5.38;;;3.90;;
55172;SDS011;41061;52.822;6.860;2023-03-01T10:45:02;8.68;;;5.35;;
55172;SDS011;41061;52.822;6.860;2023-03-01T10:47:26;7.22;;;4.88;;
55172;SDS011;41061;52.822;6.860;2023-03-01T10:50:03;11.52;;;5.90;;
55172;SDS011;41061;52.822;6.860;2023-03-01T10:52:35;10.15;;;5.97;;
55172;SDS011;41061;52.822;6.860;2023-03-01T10:55:03;9.15;;;5.38;;
55172;SDS011;41061;52.822;6.860;2023-03-01T10:58:05;7.50;;;5.93;;
55172;SDS011;41061;52.822;6.860;2023-03-01T11:00:33;10.20;;;5.65;;
55172;SDS011;41061;52.822;6.860;2023-03-01T11:03:12;11.75;;;5.82;;
55172;SDS011;41061;52.822;6.860;2023-03-01T11:05:53;10.77;;;6.38;;
55172;SDS011;41061;52.822;6.860;2023-03-01T11:08:53;7.60;;;5.22;;
55172;SDS011;41061;52.822;6.860;2023-03-01T11:11:13;8.40;;;5.78;;
55172;SDS011;41061;52.822;6.860;2023-03-01T11:13:49;9.52;;;6.20;;
55172;SDS011;41061;52.822;6.860;2023-03-01T11:16:16;9.30;;;5.90;;
55172;SDS011;41061;52.822;6.860;2023-03-01T11:18:55;10.18;;;5.72;;
55172;SDS011;41061;52.822;6.860;2023-03-01T11:21:22;12.75;;;6.50;;
55172;SDS011;41061;52.822;6.860;2023-03-01T11:23:48;8.50;;;5.68;;
55172;SDS011;41061;52.822;6.860;2023-03-01T11:26:15;8.70;;;5.82;;
55172;SDS011;41061;52.822;6.860;2023-03-01T11:28:42;7.88;;;5.13;;
55172;SDS011;41061;52.822;6.860;2023-03-01T11:31:09;5.28;;;3.70;;
55172;SDS011;41061;52.822;6.860;2023-03-01T11:36:17;9.23;;;4.40;;
55172;SDS011;41061;52.822;6.860;2023-03-01T11:38:45;8.35;;;4.32;;
55172;SDS011;41061;52.822;6.860;2023-03-01T11:41:21;7.00;;;4.38;;
55172;SDS011;41061;52.822;6.860;2023-03-01T11:43:53;9.85;;;4.90;;
55172;SDS011;41061;52.822;6.860;2023-03-01T11:48:52;8.63;;;4.85;;
55172;SDS011;41061;52.822;6.860;2023-03-01T11:53:59;8.05;;;4.45;;
55172;SDS011;41061;52.822;6.860;2023-03-01T11:56:35;8.10;;;5.07;;
55172;SDS011;41061;52.822;6.860;2023-03-01T11:59:06;7.57;;;5.10;;
55172;SDS011;41061;52.822;6.860;2023-03-01T12:04:08;9.85;;;6.00;;
55172;SDS011;41061;52.822;6.860;2023-03-01T12:11:49;12.15;;;6.72;;
55172;SDS011;41061;52.822;6.860;2023-03-01T12:32:19;13.05;;;6.75;;
55172;SDS011;41061;52.822;6.860;2023-03-01T12:37:33;12.27;;;6.67;;
55172;SDS011;41061;52.822;6.860;2023-03-01T12:45:32;10.38;;;6.05;;
55172;SDS011;41061;52.822;6.860;2023-03-01T12:51:11;10.38;;;7.15;;
55172;SDS011;41061;52.822;6.860;2023-03-01T12:53:47;11.40;;;6.47;;
55172;SDS011;41061;52.822;6.860;2023-03-01T12:56:19;9.38;;;6.38;;
55172;SDS011;41061;52.822;6.860;2023-03-01T13:06:53;10.75;;;8.20;;
55172;SDS011;41061;52.822;6.860;2023-03-01T13:09:35;13.57;;;7.97;;
55172;SDS011;41061;52.822;6.860;2023-03-01T13:12:41;13.40;;;7.88;;
55172;SDS011;41061;52.822;6.860;2023-03-01T13:17:49;12.98;;;7.95;;
55172;SDS011;41061;52.822;6.860;2023-03-01T13:20:19;12.75;;;8.57;;
55172;SDS011;41061;52.822;6.860;2023-03-01T13:22:48;10.98;;;7.43;;
55172;SDS011;41061;52.822;6.860;2023-03-01T13:25:26;13.13;;;8.23;;
55172;SDS011;41061;52.822;6.860;2023-03-01T13:27:52;10.52;;;7.80;;
55172;SDS011;41061;52.822;6.860;2023-03-01T13:30:56;10.73;;;7.35;;
55172;SDS011;41061;52.822;6.860;2023-03-01T13:35:52;15.00;;;8.07;;
55172;SDS011;41061;52.822;6.860;2023-03-01T13:41:11;14.02;;;9.43;;
55172;SDS011;41061;52.822;6.860;2023-03-01T13:43:40;14.63;;;9.43;;
55172;SDS011;41061;52.822;6.860;2023-03-01T13:46:08;13.13;;;9.05;;
55172;SDS011;41061;52.822;6.860;2023-03-01T13:48:41;11.77;;;8.10;;
55172;SDS011;41061;52.822;6.860;2023-03-01T13:51:10;13.30;;;9.00;;
55172;SDS011;41061;52.822;6.860;2023-03-01T13:53:40;13.02;;;8.98;;
55172;SDS011;41061;52.822;6.860;2023-03-01T13:58:46;15.18;;;9.02;;
55172;SDS011;41061;52.822;6.860;2023-03-01T14:01:28;13.77;;;9.60;;
55172;SDS011;41061;52.822;6.860;2023-03-01T14:03:55;14.57;;;9.75;;
55172;SDS011;41061;52.822;6.860;2023-03-01T14:06:24;13.68;;;9.02;;
55172;SDS011;41061;52.822;6.860;2023-03-01T14:08:59;18.42;;;9.05;;
55172;SDS011;41061;52.822;6.860;2023-03-01T14:19:56;13.63;;;9.23;;
55172;SDS011;41061;52.822;6.860;2023-03-01T14:22:25;13.50;;;8.75;;
55172;SDS011;41061;52.822;6.860;2023-03-01T14:25:00;14.60;;;9.23;;
55172;SDS011;41061;52.822;6.860;2023-03-01T14:27:51;15.07;;;9.93;;
55172;SDS011;41061;52.822;6.860;2023-03-01T14:30:49;15.45;;;9.02;;
55172;SDS011;41061;52.822;6.860;2023-03-01T14:41:06;13.45;;;8.68;;
55172;SDS011;41061;52.822;6.860;2023-03-01T14:43:41;13.70;;;9.13;;
55172;SDS011;41061;52.822;6.860;2023-03-01T14:46:56;13.70;;;9.13;;
55172;SDS011;41061;52.822;6.860;2023-03-01T14:49:15;12.93;;;8.90;;
55172;SDS011;41061;52.822;6.860;2023-03-01T14:51:53;13.73;;;8.80;;
55172;SDS011;41061;52.822;6.860;2023-03-01T14:54:28;16.35;;;9.10;;
55172;SDS011;41061;52.822;6.860;2023-03-01T14:57:05;14.23;;;9.13;;
55172;SDS011;41061;52.822;6.860;2023-03-01T14:59:32;15.18;;;8.73;;
55172;SDS011;41061;52.822;6.860;2023-03-01T15:01:58;9.20;;;7.13;;
55172;SDS011;41061;52.822;6.860;2023-03-01T15:04:25;12.20;;;8.48;;
55172;SDS011;41061;52.822;6.860;2023-03-01T15:06:52;16.02;;;8.77;;
55172;SDS011;41061;52.822;6.860;2023-03-01T15:09:20;14.48;;;9.15;;
55172;SDS011;41061;52.822;6.860;2023-03-01T15:11:47;12.75;;;7.82;;
55172;SDS011;41061;52.822;6.860;2023-03-01T15:19:53;11.13;;;7.95;;
55172;SDS011;41061;52.822;6.860;2023-03-01T15:22:19;12.02;;;8.15;;
55172;SDS011;41061;52.822;6.860;2023-03-01T15:24:49;16.45;;;9.13;;
55172;SDS011;41061;52.822;6.860;2023-03-01T15:27:19;16.00;;;9.80;;
55172;SDS011;41061;52.822;6.860;2023-03-01T15:29:48;13.27;;;9.60;;
55172;SDS011;41061;52.822;6.860;2023-03-01T15:34:59;12.68;;;9.35;;
55172;SDS011;41061;52.822;6.860;2023-03-01T15:37:45;13.43;;;9.55;;
55172;SDS011;41061;52.822;6.860;2023-03-01T15:40:24;13.93;;;8.68;;
55172;SDS011;41061;52.822;6.860;2023-03-01T15:45:25;14.93;;;9.82;;
55172;SDS011;41061;52.822;6.860;2023-03-01T15:47:53;12.50;;;9.10;;
55172;SDS011;41061;52.822;6.860;2023-03-01T15:50:33;14.38;;;9.77;;
55172;SDS011;41061;52.822;6.860;2023-03-01T15:53:01;15.25;;;9.13;;
55172;SDS011;41061;52.822;6.860;2023-03-01T15:55:31;14.02;;;9.73;;
55172;SDS011;41061;52.822;6.860;2023-03-01T15:58:40;13.35;;;9.80;;
55172;SDS011;41061;52.822;6.860;2023-03-01T16:00:48;12.82;;;9.35;;
55172;SDS011;41061;52.822;6.860;2023-03-01T16:03:21;15.10;;;10.32;;
55172;SDS011;41061;52.822;6.860;2023-03-01T16:05:48;13.55;;;9.68;;
55172;SDS011;41061;52.822;6.860;2023-03-01T16:08:15;14.52;;;10.43;;
55172;SDS011;41061;52.822;6.860;2023-03-01T16:10:41;15.73;;;10.68;;
55172;SDS011;41061;52.822;6.860;2023-03-01T16:13:11;14.60;;;10.55;;
55172;SDS011;41061;52.822;6.860;2023-03-01T16:15:37;14.52;;;10.85;;
55172;SDS011;41061;52.822;6.860;2023-03-01T16:18:04;14.40;;;10.43;;
55172;SDS011;41061;52.822;6.860;2023-03-01T16:20:31;17.30;;;11.20;;
55172;SDS011;41061;52.822;6.860;2023-03-01T16:22:59;15.70;;;11.05;;
55172;SDS011;41061;52.822;6.860;2023-03-01T16:25:26;17.38;;;11.50;;
55172;SDS011;41061;52.822;6.860;2023-03-01T16:27:52;15.57;;;11.60;;
55172;SDS011;41061;52.822;6.860;2023-03-01T16:30:19;17.00;;;11.50;;
55172;SDS011;41061;52.822;6.860;2023-03-01T16:32:47;17.05;;;12.18;;
55172;SDS011;41061;52.822;6.860;2023-03-01T16:35:14;14.85;;;11.45;;